This is the latest recevied weather packets stored in our database for station/object IW1CGW-23. If no packets are shown the sender has not sent any weather packets the latest 10 day(s).
| Time | Temp. | Humidity | Pressure | Rain* | Wind** | Luminosity | Snow |
|---|---|---|---|---|---|---|---|
| 1777614344 | 16.67° C | 59% | 1024.7 hPa | - | - | - | - |
| 1777612778 | 16.11° C | 61% | 1024.5 hPa | - | - | - | - |
| 1777611995 | 15.56° C | 62% | 1024.3 hPa | - | - | - | - |
| 1777611213 | 13.89° C | 64% | 1024 hPa | - | - | - | - |
| 1777608092 | 12.22° C | 64% | 1023.5 hPa | - | - | - | - |
| 1777605751 | 13.33° C | 64% | 1023.4 hPa | - | - | - | - |
| 1777604189 | 12.78° C | 64% | 1023.2 hPa | - | - | - | - |
| 1777600285 | 13.33° C | 64% | 1022.8 hPa | - | - | - | - |
| 1777599504 | 13.33° C | 64% | 1022.7 hPa | - | - | - | - |
| 1777598723 | 13.33° C | 64% | 1022.7 hPa | - | - | - | - |
| 1777597943 | 13.33° C | 64% | 1022.6 hPa | - | - | - | - |
| 1777597162 | 13.33° C | 63% | 1022.5 hPa | - | - | - | - |
| 1777595600 | 13.89° C | 62% | 1022.4 hPa | - | - | - | - |
| 1777594038 | 14.44° C | 61% | 1022.4 hPa | - | - | - | - |
| 1777592475 | 14.44° C | 60% | 1022.2 hPa | - | - | - | - |
| 1777590912 | 15° C | 59% | 1022 hPa | - | - | - | - |
| 1777589349 | 15.56° C | 58% | 1021.8 hPa | - | - | - | - |
| 1777587004 | 16.11° C | 57% | 1021.7 hPa | - | - | - | - |
| 1777585440 | 16.67° C | 55% | 1021.7 hPa | - | - | - | - |
| 1777584658 | 16.67° C | 55% | 1021.6 hPa | - | - | - | - |
| 1777583093 | 17.22° C | 53% | 1021.5 hPa | - | - | - | - |
| 1777580744 | 17.78° C | 52% | 1021.3 hPa | - | - | - | - |
| 1777579179 | 17.78° C | 51% | 1021.1 hPa | - | - | - | - |
| 1777578396 | 17.78° C | 51% | 1021 hPa | - | - | - | - |
| 1777577614 | 18.33° C | 50% | 1021 hPa | - | - | - | - |
* Rain since midnight (hover to see other rain measurements)
** Current wind speed in m/s (hover to see current wind gust speed)